Nokomis, FL

4:20 PM EDT on March 23, 2017 (GMT -0400)
Mission Valley | | Change Station

Elev 20 ft 27.15 °N, 82.44 °W | Updated 16 seconds ago

Clear
Clear
86.1 °F
Feels Like 95 °F
N
3.0
Wind Variable Wind from NE

Today
High -- | Low -- °F
--% Chance of Precip.
Yesterday
High -- | Low -- °F
Precip. -- in
Pressure 30.15 in
Visibility 10.0 miles
Clouds Few 6500 ft
Heat Index 95 °F
Dew Point 74 °F
Humidity 69%
Rainfall 0.00 in
Snow Depth Not available.
7:30 AM 7:42 PM
Waning Crescent, 21% visible
METAR KVNC 232015Z AUTO 06011G16KT 10SM FEW065 30/14 A3015 RMK AO2 LTG DSNT SE AND S
Pressure 30.15 in
Visibility 10.0 miles
Clouds Few 6500 ft
Heat Index 95 °F
Dew Point 74 °F
Humidity 69%
Rainfall 0.00 in
Snow Depth Not available.
7:30 AM 7:42 PM
Waning Crescent, 21% visible
METAR KVNC 232015Z AUTO 06011G16KT 10SM FEW065 30/14 A3015 RMK AO2 LTG DSNT SE AND S

Get Severe Weather Alerts

Thanks for signing up!

Be on the lookout for a verification email in your inbox.

You'll start receiving the daily forecast at 8 AM.

×

10-Day Weather Forecast

Almanac

Astronomy

Mar. 23, 2017 Rise Set
Actual Time
Civil Twilight
Nautical Twilight
Astronomical Twilight
Moon
Length of Visible Light
Length of Day
Tomorrow will be .
, % of the Moon is Illuminated

Today's Extremes

State Highs State Lows

Community

WunderPhotos

Upload Photos

1,962,540 photos uploaded!

WunderBlog® & News

Nearby

Air Quality

  Air Quality AQ Index Pollutant
Not available.

Snow Depth

Station Depth Elevation

Earthquake Activity

City Distance Mag. Time & Date
Minimum magnitude displayed is 2.5.

Earthquake Activity

City Distance Mag. Time & Date
Minimum magnitude displayed is 2.5.

Coastal Water Temperatures

Place Temperature

Stations

Nearby Weather Stations

Station Location Temp. Windchill Dew Point Humidity Wind Precip. Elev Updated Type
                   

Watches & Warnings

There are currently no watches in effect.